Time;durP1;ratioP1;P1;durP2;ratioP2;P2;SDS_P1;SDS_P2;PMS_P1;PMS_P2;Temp;Humidity;BMP_temperature;BMP_pressure;BME280_temperature;BME280_humidity;BME280_pressure;Samples;Min_cycle;Max_cycle;Signal;HPM_P1;HPM_P2
2020/12/06 00:01:13;;;;;;;36.40;15.50;;;3.30;74.20;;;;;;4902871;29;20064;-81
2020/12/06 00:03:39;;;;;;;37.35;15.05;;;3.40;74.40;;;;;;4918406;29;20080;-80
2020/12/06 00:06:05;;;;;;;44.72;16.75;;;3.40;74.30;;;;;;4918652;29;20032;-81
2020/12/06 00:08:30;;;;;;;37.60;16.60;;;3.40;74.00;;;;;;4903043;29;20091;-81
2020/12/06 00:10:57;;;;;;;36.30;15.90;;;3.40;74.10;;;;;;4903210;29;20114;-80
2020/12/06 00:13:23;;;;;;;40.60;16.95;;;3.40;74.20;;;;;;4877836;29;20051;-80
2020/12/06 00:15:48;;;;;;;38.88;17.45;;;3.40;74.40;;;;;;4902724;29;20389;-80
2020/12/06 00:18:14;;;;;;;43.13;18.98;;;3.40;74.40;;;;;;4902590;29;20063;-80
2020/12/06 00:20:39;;;;;;;37.40;17.23;;;3.40;74.30;;;;;;4902588;29;20028;-80
2020/12/06 00:23:05;;;;;;;40.92;18.58;;;3.40;74.30;;;;;;4886953;29;20495;-81
2020/12/06 00:25:31;;;;;;;32.15;13.23;;;3.40;74.00;;;;;;4887797;29;20039;-80
2020/12/06 00:27:56;;;;;;;37.38;16.13;;;3.40;74.00;;;;;;4894222;29;20393;-80
2020/12/06 00:30:22;;;;;;;41.67;16.40;;;3.40;74.20;;;;;;4909569;29;20079;-80
2020/12/06 00:32:47;;;;;;;38.00;14.98;;;3.40;74.30;;;;;;4902371;29;20047;-80
2020/12/06 00:35:13;;;;;;;39.70;16.92;;;3.40;74.40;;;;;;4904870;29;20036;-80
2020/12/06 00:37:40;;;;;;;26.48;10.70;;;3.40;74.10;;;;;;4919256;29;20055;-80
2020/12/06 00:40:09;;;;;;;28.33;13.88;;;3.30;73.80;;;;;;4904994;29;20039;-80
2020/12/06 00:42:36;;;;;;;27.42;12.70;;;3.30;73.50;;;;;;4918927;29;20385;-80
2020/12/06 00:45:05;;;;;;;29.92;13.18;;;3.20;73.70;;;;;;4907950;29;20028;-81
2020/12/06 00:47:34;;;;;;;30.40;13.60;;;3.20;73.90;;;;;;4918977;29;20426;-80
2020/12/06 00:50:00;;;;;;;28.92;12.60;;;3.10;73.70;;;;;;4919355;29;20425;-80
2020/12/06 00:52:25;;;;;;;27.75;12.95;;;3.10;73.90;;;;;;4890103;29;20024;-81
2020/12/06 00:54:51;;;;;;;36.28;16.10;;;3.10;74.00;;;;;;4891511;29;20039;-80
2020/12/06 00:57:16;;;;;;;34.33;13.85;;;3.10;74.20;;;;;;4902144;29;20024;-80
2020/12/06 00:59:42;;;;;;;34.10;14.98;;;3.10;74.30;;;;;;4887259;29;20028;-81
2020/12/06 01:02:08;;;;;;;34.45;14.07;;;3.10;74.50;;;;;;4901246;29;20392;-80
2020/12/06 01:04:34;;;;;;;37.67;15.95;;;3.20;74.50;;;;;;4918120;29;20031;-80
2020/12/06 01:07:00;;;;;;;30.83;12.32;;;3.20;74.40;;;;;;4892780;29;20024;-80
2020/12/06 01:09:26;;;;;;;26.55;10.20;;;3.20;74.20;;;;;;4883978;29;20056;-80
2020/12/06 01:11:52;;;;;;;29.35;12.10;;;3.10;73.90;;;;;;4920747;29;20032;-80
2020/12/06 01:14:17;;;;;;;33.88;13.77;;;3.10;74.20;;;;;;4901749;29;20043;-80
2020/12/06 01:16:43;;;;;;;30.77;14.10;;;3.20;74.50;;;;;;4891413;29;20024;-80
2020/12/06 01:19:09;;;;;;;35.40;15.63;;;3.20;74.60;;;;;;4918204;29;20058;-80
2020/12/06 01:21:34;;;;;;;29.55;13.48;;;3.20;74.50;;;;;;4901657;29;20031;-80
2020/12/06 01:24:00;;;;;;;36.20;13.80;;;3.20;74.20;;;;;;4893650;29;20028;-80
2020/12/06 01:26:26;;;;;;;35.05;16.45;;;3.20;74.10;;;;;;4902592;29;20024;-80
2020/12/06 01:28:51;;;;;;;29.35;13.73;;;3.20;74.40;;;;;;4886972;29;20034;-81
2020/12/06 01:31:17;;;;;;;30.50;13.35;;;3.20;74.40;;;;;;4887201;29;20059;-80
2020/12/06 01:33:43;;;;;;;29.63;13.73;;;3.20;74.40;;;;;;4900943;29;20040;-80
2020/12/06 01:36:08;;;;;;;35.58;14.90;;;3.20;74.40;;;;;;4901217;29;20050;-80
2020/12/06 01:38:36;;;;;;;35.22;15.68;;;3.20;74.40;;;;;;4901427;29;20047;-80
2020/12/06 01:41:02;;;;;;;28.75;13.60;;;3.20;74.20;;;;;;4906304;29;20117;-81
2020/12/06 01:43:27;;;;;;;34.65;15.82;;;3.20;74.40;;;;;;4905111;29;20117;-80
2020/12/06 01:45:53;;;;;;;30.52;15.88;;;3.20;75.00;;;;;;4918025;29;20033;-80
2020/12/06 01:48:19;;;;;;;39.22;15.05;;;3.20;74.40;;;;;;4889507;29;20028;-80
2020/12/06 01:50:44;;;;;;;33.60;14.57;;;3.20;74.30;;;;;;4874571;29;20035;-80
2020/12/06 01:53:10;;;;;;;41.92;14.93;;;3.20;74.30;;;;;;4917999;29;20034;-80
2020/12/06 01:55:37;;;;;;;30.38;13.35;;;3.10;74.30;;;;;;4892304;29;20119;-80
2020/12/06 01:58:08;;;;;;;35.85;15.98;;;3.10;74.30;;;;;;4901067;29;20032;-81
2020/12/06 02:00:35;;;;;;;34.05;14.43;;;3.20;74.40;;;;;;4917771;29;20111;-81
2020/12/06 02:03:01;;;;;;;35.95;15.07;;;3.10;74.20;;;;;;4892547;29;20036;-81
2020/12/06 02:05:31;;;;;;;41.63;17.35;;;3.10;74.30;;;;;;4900766;29;20114;-81
2020/12/06 02:07:59;;;;;;;39.05;16.35;;;3.10;74.30;;;;;;4913772;29;20060;-81
2020/12/06 02:10:30;;;;;;;40.50;16.30;;;3.10;74.30;;;;;;4890291;29;20024;-81
2020/12/06 02:12:56;;;;;;;38.85;15.13;;;3.10;74.20;;;;;;4885109;29;20032;-81
2020/12/06 02:15:23;;;;;;;32.60;14.27;;;3.10;74.30;;;;;;4915846;29;20396;-81
2020/12/06 02:17:49;;;;;;;38.22;14.43;;;3.00;74.30;;;;;;4902330;29;20044;-81
2020/12/06 02:20:15;;;;;;;37.78;13.18;;;3.10;74.50;;;;;;4917443;29;20039;-81
2020/12/06 02:22:41;;;;;;;41.85;17.85;;;3.10;74.70;;;;;;4916203;29;20053;-81
2020/12/06 02:25:07;;;;;;;49.72;19.48;;;3.10;74.50;;;;;;4892588;29;20063;-81
2020/12/06 02:27:32;;;;;;;46.20;19.15;;;3.00;74.70;;;;;;4900544;29;20035;-81
2020/12/06 02:29:58;;;;;;;42.42;18.88;;;3.00;74.30;;;;;;4916390;29;20039;-81
2020/12/06 02:32:24;;;;;;;39.95;16.98;;;3.10;74.70;;;;;;4900335;29;20043;-81
2020/12/06 02:34:50;;;;;;;41.65;16.30;;;3.00;74.30;;;;;;4900305;29;20048;-80
2020/12/06 02:37:15;;;;;;;44.20;18.00;;;3.00;74.10;;;;;;4904840;29;20051;-81
2020/12/06 02:39:41;;;;;;;39.90;14.63;;;3.00;74.50;;;;;;4900929;29;20119;-81
2020/12/06 02:42:07;;;;;;;40.03;15.27;;;3.00;74.70;;;;;;4904871;29;20498;-80
2020/12/06 02:44:33;;;;;;;38.88;17.30;;;3.10;74.80;;;;;;4900539;29;20115;-81
2020/12/06 02:46:59;;;;;;;43.17;16.88;;;3.10;74.60;;;;;;4889618;29;20028;-81
2020/12/06 02:49:26;;;;;;;33.22;13.95;;;3.10;74.20;;;;;;4899926;29;20032;-80
2020/12/06 02:51:52;;;;;;;33.10;14.55;;;3.00;74.20;;;;;;4891394;29;20034;-81
2020/12/06 02:54:17;;;;;;;35.03;14.10;;;3.00;74.40;;;;;;4885391;29;20048;-81
2020/12/06 02:56:43;;;;;;;40.60;16.65;;;3.00;74.50;;;;;;4887986;29;20024;-81
2020/12/06 02:59:08;;;;;;;35.83;15.25;;;3.00;74.50;;;;;;4900346;29;20028;-81
2020/12/06 03:01:34;;;;;;;33.95;14.43;;;3.00;74.50;;;;;;4899895;29;20028;-81
2020/12/06 03:04:00;;;;;;;34.20;15.38;;;3.00;74.60;;;;;;4889206;29;20028;-81
2020/12/06 03:06:26;;;;;;;41.45;16.38;;;3.00;74.40;;;;;;4915679;29;20024;-81
2020/12/06 03:08:52;;;;;;;32.97;14.68;;;3.00;74.30;;;;;;4916789;29;20031;-81
2020/12/06 03:11:18;;;;;;;34.85;15.45;;;3.00;74.30;;;;;;4916456;29;20032;-81
2020/12/06 03:13:44;;;;;;;34.67;14.25;;;3.00;74.60;;;;;;4916622;29;20040;-81
2020/12/06 03:16:09;;;;;;;32.63;14.18;;;2.90;74.40;;;;;;4915088;29;20508;-81
2020/12/06 03:18:35;;;;;;;31.65;14.38;;;2.90;74.60;;;;;;4887536;29;20456;-83
2020/12/06 03:21:01;;;;;;;33.53;14.55;;;3.00;74.60;;;;;;4900203;29;20032;-83
2020/12/06 03:23:27;;;;;;;33.88;15.23;;;3.00;74.70;;;;;;4904490;29;20024;-81
2020/12/06 03:25:52;;;;;;;42.17;16.00;;;3.00;74.60;;;;;;4899183;29;20155;-82
2020/12/06 03:28:18;;;;;;;32.75;14.13;;;3.00;74.60;;;;;;4900518;29;20032;-81
2020/12/06 03:30:44;;;;;;;34.53;14.88;;;3.00;74.80;;;;;;4916484;29;20088;-81
2020/12/06 03:33:09;;;;;;;30.40;14.35;;;3.00;74.80;;;;;;4890379;29;20050;-81
2020/12/06 03:35:35;;;;;;;36.17;16.30;;;3.00;74.80;;;;;;4887668;29;20036;-81
2020/12/06 03:38:01;;;;;;;33.63;14.57;;;3.00;74.70;;;;;;4885164;29;20052;-80
2020/12/06 03:40:26;;;;;;;31.40;14.40;;;3.00;74.60;;;;;;4900468;29;20028;-81
2020/12/06 03:42:53;;;;;;;32.50;14.25;;;3.00;74.70;;;;;;4899412;29;20473;-80
2020/12/06 03:45:19;;;;;;;41.03;15.70;;;3.00;74.60;;;;;;4883643;29;20087;-81
2020/12/06 03:47:45;;;;;;;31.55;14.57;;;3.00;75.00;;;;;;4900855;29;20031;-81
2020/12/06 03:50:11;;;;;;;35.70;13.60;;;3.00;74.80;;;;;;4920592;29;20103;-81
2020/12/06 03:52:37;;;;;;;39.58;15.80;;;3.00;74.80;;;;;;4895579;29;20032;-81
2020/12/06 03:55:03;;;;;;;37.47;14.63;;;3.00;74.70;;;;;;4900052;29;20520;-81
2020/12/06 03:57:28;;;;;;;36.60;14.15;;;3.00;74.70;;;;;;4916274;29;20385;-81
2020/12/06 03:59:54;;;;;;;34.30;16.58;;;3.00;74.80;;;;;;4899503;29;20032;-81
2020/12/06 04:02:19;;;;;;;37.92;14.93;;;3.00;74.50;;;;;;4902740;29;20050;-81
2020/12/06 04:04:45;;;;;;;32.90;13.48;;;3.00;74.50;;;;;;4900313;29;20028;-81
2020/12/06 04:07:10;;;;;;;29.25;13.90;;;3.00;74.70;;;;;;4899161;29;20032;-81
2020/12/06 04:09:36;;;;;;;31.17;12.35;;;2.90;74.70;;;;;;4884729;29;20039;-80
2020/12/06 04:12:02;;;;;;;27.30;12.25;;;2.90;74.60;;;;;;4903853;29;20073;-80
2020/12/06 04:14:27;;;;;;;33.55;13.85;;;2.90;74.20;;;;;;4899155;29;20397;-81
2020/12/06 04:16:53;;;;;;;29.70;13.75;;;2.90;74.70;;;;;;4915835;29;20025;-79
2020/12/06 04:19:18;;;;;;;32.33;14.75;;;2.90;74.80;;;;;;4899940;29;20063;-80
2020/12/06 04:21:44;;;;;;;32.22;13.00;;;2.90;74.80;;;;;;4893582;29;20084;-81
2020/12/06 04:24:12;;;;;;;31.75;13.65;;;2.90;74.90;;;;;;4899217;29;20461;-80
2020/12/06 04:26:38;;;;;;;24.10;11.05;;;2.90;74.70;;;;;;4887704;29;20390;-82
2020/12/06 04:29:04;;;;;;;33.28;13.98;;;2.90;74.80;;;;;;4883901;29;20032;-79
2020/12/06 04:31:30;;;;;;;29.95;13.73;;;2.90;75.10;;;;;;4900120;29;20024;-79
2020/12/06 04:33:55;;;;;;;34.45;15.20;;;2.80;74.50;;;;;;4914864;29;20087;-81
2020/12/06 04:36:21;;;;;;;37.85;15.80;;;2.80;75.00;;;;;;4898830;29;20413;-81
2020/12/06 04:38:47;;;;;;;41.90;14.90;;;2.90;75.30;;;;;;4902537;29;20032;-78
2020/12/06 04:41:12;;;;;;;36.20;14.85;;;3.00;75.30;;;;;;4919439;29;20150;-80
2020/12/06 04:43:40;;;;;;;34.30;13.50;;;3.00;75.10;;;;;;4917972;29;20047;-80
2020/12/06 04:46:06;;;;;;;37.30;15.95;;;3.00;75.00;;;;;;4919116;29;20028;-80
2020/12/06 04:49:04;;;;;;;39.47;16.65;;;3.00;74.70;;;;;;4918981;29;20043;-80
2020/12/06 04:51:42;;;;;;;42.03;16.48;;;3.00;74.90;;;;;;4902168;29;20055;-80
2020/12/06 04:54:08;;;;;;;31.58;13.00;;;3.00;74.90;;;;;;4918637;29;20393;-80
2020/12/06 04:56:34;;;;;;;37.35;15.95;;;3.00;75.00;;;;;;4902301;29;20499;-80
2020/12/06 04:59:03;;;;;;;39.35;18.23;;;3.00;75.10;;;;;;4906962;29;20048;-80
2020/12/06 05:01:36;;;;;;;36.97;16.15;;;3.00;74.70;;;;;;4902087;29;20032;-81
2020/12/06 05:04:10;;;;;;;31.27;13.85;;;2.90;74.80;;;;;;4901799;29;20499;-81
2020/12/06 05:06:41;;;;;;;36.15;14.05;;;2.90;74.80;;;;;;4917323;29;20613;-81
2020/12/06 05:09:09;;;;;;;29.92;13.02;;;2.90;74.70;;;;;;4898449;29;20404;-81
2020/12/06 05:11:36;;;;;;;36.63;13.68;;;2.90;74.80;;;;;;4901815;29;20028;-81
2020/12/06 05:14:05;;;;;;;29.90;12.63;;;2.90;74.80;;;;;;4917454;29;20040;-81
2020/12/06 05:16:39;;;;;;;36.25;15.27;;;2.90;74.80;;;;;;4918513;29;20384;-81
2020/12/06 05:19:06;;;;;;;32.90;13.38;;;2.90;75.10;;;;;;4901701;29;20520;-80
2020/12/06 05:21:41;;;;;;;32.10;13.77;;;2.90;74.90;;;;;;4886912;29;20036;-80
2020/12/06 05:24:07;;;;;;;33.38;14.05;;;2.90;74.80;;;;;;4901687;29;20024;-81
2020/12/06 05:26:33;;;;;;;34.63;13.45;;;2.90;74.90;;;;;;4916892;29;20027;-81
2020/12/06 05:29:00;;;;;;;31.58;12.80;;;2.90;74.90;;;;;;4901778;29;20024;-81
2020/12/06 05:31:26;;;;;;;35.60;16.25;;;2.80;74.80;;;;;;4917262;29;20032;-81
2020/12/06 05:33:53;;;;;;;31.38;14.27;;;2.80;74.60;;;;;;4901442;29;20040;-81
2020/12/06 05:36:19;;;;;;;36.15;14.13;;;2.80;74.70;;;;;;4918064;29;20056;-81
2020/12/06 05:38:45;;;;;;;37.92;16.45;;;2.80;75.00;;;;;;4901443;29;20024;-81
2020/12/06 05:41:11;;;;;;;30.20;13.77;;;2.80;74.80;;;;;;4885722;29;20028;-81
2020/12/06 05:43:37;;;;;;;35.28;15.38;;;2.70;74.70;;;;;;4905121;29;20032;-81
2020/12/06 05:46:10;;;;;;;33.38;13.70;;;2.70;74.90;;;;;;4901102;29;20024;-81
2020/12/06 05:48:37;;;;;;;31.90;13.13;;;2.70;74.90;;;;;;4892547;29;20039;-81
2020/12/06 05:51:04;;;;;;;35.42;13.63;;;2.80;75.20;;;;;;4916796;29;20020;-81
2020/12/06 05:53:31;;;;;;;29.65;12.85;;;2.80;75.20;;;;;;4916537;29;20059;-81
2020/12/06 05:56:03;;;;;;;36.03;14.13;;;2.80;75.10;;;;;;4916747;29;20028;-81
2020/12/06 05:58:31;;;;;;;34.72;14.88;;;2.80;74.90;;;;;;4900814;29;20078;-80
2020/12/06 06:00:59;;;;;;;28.83;13.82;;;2.80;75.00;;;;;;4901150;29;20128;-80
2020/12/06 06:03:28;;;;;;;32.83;13.30;;;2.80;74.90;;;;;;4900615;29;20035;-81
2020/12/06 06:05:56;;;;;;;28.42;12.27;;;2.70;74.80;;;;;;4916658;29;20024;-81
2020/12/06 06:08:25;;;;;;;27.38;11.00;;;2.70;74.80;;;;;;4889977;29;20171;-81
2020/12/06 06:11:16;;;;;;;33.65;14.25;;;2.70;74.60;;;;;;4917839;29;20031;-80
2020/12/06 06:14:03;;;;;;;20.83;8.85;;;2.60;74.40;;;;;;4917411;29;20052;-81
2020/12/06 06:16:31;;;;;;;33.95;13.80;;;2.50;74.40;;;;;;4900451;29;20066;-80
2020/12/06 06:18:58;;;;;;;30.88;12.90;;;2.50;74.90;;;;;;4916009;29;20103;-81
2020/12/06 06:21:28;;;;;;;29.40;12.02;;;2.60;75.90;;;;;;4901817;29;20474;-80
2020/12/06 06:23:56;;;;;;;31.73;12.68;;;2.60;75.20;;;;;;4900282;29;20031;-81
2020/12/06 06:26:25;;;;;;;34.80;13.63;;;2.60;75.00;;;;;;4886237;29;20036;-81
2020/12/06 06:28:52;;;;;;;26.50;11.23;;;2.50;74.90;;;;;;4916893;29;20028;-81
2020/12/06 06:31:19;;;;;;;36.05;16.60;;;2.60;75.10;;;;;;4902585;29;20036;-84
2020/12/06 06:33:46;;;;;;;32.38;13.50;;;2.60;75.20;;;;;;4922449;29;20039;-84
2020/12/06 06:36:12;;;;;;;29.63;12.82;;;2.60;75.30;;;;;;4903257;29;20028;-83
2020/12/06 06:38:44;;;;;;;33.25;13.18;;;2.60;75.40;;;;;;4900249;29;20030;-84
2020/12/06 06:41:11;;;;;;;31.00;14.05;;;2.70;75.40;;;;;;4900347;29;20028;-84
2020/12/06 06:43:41;;;;;;;28.95;13.13;;;2.70;75.40;;;;;;4900094;29;20354;-82
2020/12/06 06:46:21;;;;;;;24.80;11.90;;;2.80;75.40;;;;;;4899989;29;20033;-84
2020/12/06 06:48:51;;;;;;;33.60;15.27;;;2.70;75.20;;;;;;4915624;29;20523;-84
2020/12/06 06:51:21;;;;;;;35.85;16.30;;;2.70;75.10;;;;;;4900131;29;20042;-83
2020/12/06 06:53:48;;;;;;;36.60;16.42;;;2.70;75.30;;;;;;4899331;29;20515;-82
2020/12/06 06:56:18;;;;;;;36.10;16.17;;;2.70;75.80;;;;;;4900152;29;20055;-83
2020/12/06 06:58:49;;;;;;;37.45;16.30;;;2.70;75.20;;;;;;4900297;29;20036;-83
2020/12/06 07:01:23;;;;;;;36.10;14.35;;;2.70;75.20;;;;;;4899654;29;20076;-85
2020/12/06 07:03:53;;;;;;;30.13;14.00;;;2.80;75.30;;;;;;4915728;29;20032;-83
2020/12/06 07:06:41;;;;;;;29.70;13.25;;;2.70;75.10;;;;;;4900010;29;20086;-83
2020/12/06 07:09:06;;;;;;;31.00;14.75;;;2.70;75.10;;;;;;4916706;29;20052;-83
2020/12/06 07:11:33;;;;;;;30.38;13.43;;;2.70;75.30;;;;;;4916805;29;20052;-82
2020/12/06 07:14:01;;;;;;;25.83;12.10;;;2.70;75.00;;;;;;4899696;29;20115;-83
2020/12/06 07:16:26;;;;;;;24.67;11.40;;;2.70;74.90;;;;;;4899558;29;20488;-86
2020/12/06 07:18:52;;;;;;;28.42;12.45;;;2.60;75.30;;;;;;4883545;29;20056;-82
2020/12/06 07:21:17;;;;;;;29.02;13.13;;;2.60;74.80;;;;;;4899426;29;20139;-82
2020/12/06 07:23:43;;;;;;;28.48;14.25;;;2.60;75.10;;;;;;4887971;29;20067;-82
2020/12/06 07:26:09;;;;;;;27.05;11.35;;;2.60;75.30;;;;;;4899739;29;20432;-82
2020/12/06 07:28:35;;;;;;;32.53;13.90;;;2.60;75.00;;;;;;4885033;29;20028;-82
2020/12/06 07:31:01;;;;;;;29.98;12.85;;;2.60;74.90;;;;;;4906547;29;20115;-82
2020/12/06 07:33:26;;;;;;;24.90;12.52;;;2.60;75.80;;;;;;4915820;29;20370;-82
2020/12/06 07:35:52;;;;;;;30.33;13.40;;;2.60;75.10;;;;;;4899382;29;20030;-82
2020/12/06 07:38:17;;;;;;;24.83;13.02;;;2.60;75.30;;;;;;4887127;29;20040;-82
2020/12/06 07:40:43;;;;;;;26.70;12.77;;;2.70;75.30;;;;;;4908935;29;20024;-82
2020/12/06 07:43:13;;;;;;;27.15;14.27;;;2.70;75.20;;;;;;4889228;29;20032;-81
2020/12/06 07:45:50;;;;;;;30.00;15.00;;;2.70;75.40;;;;;;4902608;29;20087;-95
2020/12/06 07:48:34;;;;;;;25.83;13.20;;;2.70;75.30;;;;;;4908572;29;20009;-95
2020/12/06 07:51:16;;;;;;;29.70;13.85;;;2.80;75.40;;;;;;4921275;29;20012;-94
2020/12/06 07:53:49;;;;;;;29.20;13.88;;;2.80;75.40;;;;;;4904390;29;20036;-88
2020/12/06 07:56:19;;;;;;;21.45;9.60;;;2.80;75.60;;;;;;4915409;29;20110;-83
2020/12/06 07:58:59;;;;;;;17.30;8.15;;;2.90;75.70;;;;;;4915613;29;20030;-92
2020/12/06 08:01:26;;;;;;;21.10;8.25;;;3.00;76.30;;;;;;4900174;29;20024;-89
2020/12/06 08:03:56;;;;;;;23.25;11.38;;;3.20;76.40;;;;;;4886605;29;20465;-88
2020/12/06 08:06:29;;;;;;;29.73;13.77;;;3.20;75.50;;;;;;4915923;29;20090;-89
2020/12/06 08:08:59;;;;;;;27.63;12.60;;;3.20;75.70;;;;;;4899932;29;20087;-92
2020/12/06 08:11:51;;;;;;;26.88;12.45;;;3.30;75.60;;;;;;4902376;29;20040;-89
2020/12/06 08:14:19;;;;;;;27.23;12.80;;;3.20;75.50;;;;;;4908931;29;20631;-89
2020/12/06 08:16:57;;;;;;;32.42;15.25;;;3.30;76.00;;;;;;4923573;29;20115;-90
2020/12/06 08:19:24;;;;;;;30.48;14.93;;;3.30;75.90;;;;;;4903728;29;20115;-90
2020/12/06 08:21:50;;;;;;;26.38;12.00;;;3.50;75.90;;;;;;4904000;29;20118;-90
2020/12/06 08:24:20;;;;;;;27.27;13.20;;;3.50;76.00;;;;;;4887161;29;20040;-88
2020/12/06 08:26:46;;;;;;;27.45;12.98;;;3.50;76.00;;;;;;4897090;29;20032;-89
2020/12/06 08:29:15;;;;;;;27.30;13.55;;;3.60;75.90;;;;;;4903384;29;20024;-89
2020/12/06 08:31:42;;;;;;;22.58;10.75;;;3.60;76.00;;;;;;4904503;29;20063;-87
2020/12/06 08:34:09;;;;;;;22.13;12.73;;;3.60;75.70;;;;;;4904179;29;20487;-91
2020/12/06 08:36:35;;;;;;;30.55;14.15;;;3.70;76.00;;;;;;4903261;29;20111;-89
2020/12/06 08:39:01;;;;;;;26.75;13.73;;;3.70;75.60;;;;;;4892278;29;20063;-89
2020/12/06 08:41:26;;;;;;;29.60;15.10;;;3.60;75.30;;;;;;4904279;29;20020;-90
2020/12/06 08:43:55;;;;;;;28.77;14.18;;;3.70;75.70;;;;;;4904417;29;20035;-92
2020/12/06 08:46:23;;;;;;;25.08;13.52;;;3.80;75.80;;;;;;4928444;29;20062;-91
2020/12/06 08:48:53;;;;;;;26.48;13.35;;;3.80;75.80;;;;;;4903825;29;20043;-92
2020/12/06 08:51:33;;;;;;;24.75;12.40;;;3.70;75.90;;;;;;4906835;29;20032;-92
2020/12/06 08:54:23;;;;;;;26.55;13.50;;;3.90;76.20;;;;;;4888758;29;20524;-92
2020/12/06 08:56:49;;;;;;;24.15;12.13;;;3.90;76.00;;;;;;4903523;29;20031;-91
2020/12/06 08:59:17;;;;;;;22.63;11.77;;;4.00;76.20;;;;;;4902780;29;20028;-91
2020/12/06 09:02:20;;;;;;;23.15;11.30;;;4.00;75.70;;;;;;4909220;29;20020;-91
2020/12/06 09:04:55;;;;;;;20.05;8.90;;;3.90;75.60;;;;;;4903231;29;20028;-91
2020/12/06 09:07:40;;;;;;;28.17;12.52;;;3.80;75.40;;;;;;4903688;29;20079;-89
2020/12/06 09:10:08;;;;;;;19.00;9.38;;;3.80;75.20;;;;;;4904484;29;20027;-92
2020/12/06 09:12:36;;;;;;;13.02;5.90;;;3.80;75.40;;;;;;4906818;29;20119;-93
2020/12/06 09:15:02;;;;;;;22.15;11.07;;;3.70;75.20;;;;;;4903440;29;20040;-94
2020/12/06 09:17:28;;;;;;;27.50;12.25;;;3.70;75.10;;;;;;4909708;29;20032;-93
2020/12/06 09:19:55;;;;;;;22.80;11.68;;;3.60;76.20;;;;;;4904431;29;20496;-90
2020/12/06 09:22:21;;;;;;;27.90;13.15;;;3.70;76.10;;;;;;4901812;29;20024;-91
2020/12/06 09:24:46;;;;;;;25.80;12.10;;;3.80;76.00;;;;;;4902952;29;20016;-90
2020/12/06 09:27:12;;;;;;;27.02;12.65;;;3.80;75.90;;;;;;4903803;29;20083;-89
2020/12/06 09:29:38;;;;;;;23.83;11.40;;;3.90;76.00;;;;;;4899911;29;20030;-90
2020/12/06 09:32:03;;;;;;;28.08;11.32;;;3.90;76.00;;;;;;4894360;29;20118;-90
2020/12/06 09:34:29;;;;;;;29.85;13.02;;;4.00;76.10;;;;;;4902428;29;20083;-90
2020/12/06 09:36:54;;;;;;;24.08;12.90;;;4.10;76.40;;;;;;4888316;29;20035;-91
2020/12/06 09:39:20;;;;;;;28.50;13.25;;;4.10;76.20;;;;;;4897999;29;20035;-91
2020/12/06 09:41:46;;;;;;;23.13;10.80;;;4.10;75.70;;;;;;4889146;29;20440;-91
2020/12/06 09:44:12;;;;;;;25.05;13.32;;;4.10;75.90;;;;;;4907057;29;20032;-92
2020/12/06 09:46:37;;;;;;;17.08;7.93;;;4.10;76.10;;;;;;4905330;29;20020;-89
2020/12/06 09:49:03;;;;;;;33.85;14.40;;;4.20;75.90;;;;;;4902910;29;20031;-90
2020/12/06 09:51:29;;;;;;;24.75;10.93;;;4.30;76.00;;;;;;4908904;29;20039;-92
2020/12/06 09:53:55;;;;;;;26.40;11.32;;;4.20;76.00;;;;;;4888307;29;20055;-89
2020/12/06 09:56:30;;;;;;;22.92;11.13;;;4.20;75.40;;;;;;4902823;29;20461;-89
2020/12/06 09:58:56;;;;;;;26.15;11.27;;;4.20;75.70;;;;;;4905791;29;20024;-92
2020/12/06 10:01:24;;;;;;;23.17;10.90;;;4.20;75.80;;;;;;4903633;29;20429;-87
2020/12/06 10:03:51;;;;;;;26.08;13.00;;;4.20;75.60;;;;;;4902147;29;20052;-90
2020/12/06 10:06:22;;;;;;;30.38;12.82;;;4.10;75.80;;;;;;4906637;29;20051;-94
2020/12/06 10:08:48;;;;;;;28.67;13.43;;;4.10;75.60;;;;;;4903136;29;20032;-94
2020/12/06 10:11:14;;;;;;;23.13;11.23;;;4.20;76.00;;;;;;4904294;29;20025;-91
2020/12/06 10:13:39;;;;;;;28.77;12.82;;;4.20;76.20;;;;;;4914496;29;20099;-91
2020/12/06 10:16:07;;;;;;;26.00;13.35;;;4.30;76.50;;;;;;4896089;29;20104;-87
2020/12/06 10:18:33;;;;;;;27.77;12.57;;;4.40;76.60;;;;;;4923988;29;20056;-94
2020/12/06 10:21:03;;;;;;;26.00;12.55;;;4.50;76.40;;;;;;4909140;29;20091;-94
2020/12/06 10:23:28;;;;;;;24.13;11.52;;;4.50;75.80;;;;;;4912223;29;20036;-92
2020/12/06 10:26:49;;;;;;;27.80;11.75;;;4.50;76.00;;;;;;4908053;29;20032;-93
2020/12/06 10:30:05;;;;;;;24.07;10.53;;;4.40;75.70;;;;;;4908427;29;20024;-95
2020/12/06 10:32:52;;;;;;;24.67;11.23;;;4.30;75.30;;;;;;4922239;29;20028;-93
2020/12/06 10:36:12;;;;;;;29.38;13.05;;;4.30;75.70;;;;;;4921000;29;20087;-94
2020/12/06 10:39:10;;;;;;;27.63;13.35;;;4.30;76.20;;;;;;4921026;29;20032;-94
2020/12/06 10:41:59;;;;;;;6.57;4.40;;;4.40;76.30;;;;;;4909082;29;20024;-93
2020/12/06 10:44:27;;;;;;;29.02;12.65;;;4.40;75.80;;;;;;4931462;29;20116;-94
2020/12/06 10:46:54;;;;;;;33.55;14.65;;;4.50;76.40;;;;;;4906324;29;20024;-92
2020/12/06 10:50:11;;;;;;;31.98;12.65;;;4.40;76.70;;;;;;4902340;29;20036;-94
2020/12/06 10:52:52;;;;;;;28.70;13.88;;;4.60;76.70;;;;;;4934799;29;20025;-93
2020/12/06 10:55:24;;;;;;;27.80;13.27;;;4.70;76.70;;;;;;4922737;29;20075;-93
2020/12/06 10:57:54;;;;;;;27.60;13.15;;;4.80;76.40;;;;;;4930682;29;20001;-89
2020/12/06 11:00:21;;;;;;;28.42;13.93;;;4.80;76.40;;;;;;4931323;29;20042;-92
2020/12/06 11:02:47;;;;;;;20.48;9.40;;;4.70;76.10;;;;;;4929354;29;20053;-92
2020/12/06 11:05:12;;;;;;;24.20;12.88;;;4.80;76.20;;;;;;4904701;29;20020;-92
2020/12/06 11:07:38;;;;;;;30.77;13.98;;;4.80;76.20;;;;;;4905802;29;20092;-94
2020/12/06 11:10:04;;;;;;;31.40;14.65;;;4.80;76.30;;;;;;4902594;29;20028;-92
2020/12/06 11:12:30;;;;;;;29.55;14.00;;;4.80;76.20;;;;;;4903142;29;20020;-92
2020/12/06 11:14:55;;;;;;;30.83;13.85;;;4.90;76.80;;;;;;4901742;29;20036;-92
2020/12/06 11:17:21;;;;;;;26.65;12.65;;;4.90;76.30;;;;;;4903014;29;20481;-91
2020/12/06 11:19:46;;;;;;;22.02;9.55;;;5.00;76.10;;;;;;4903380;29;20047;-92
2020/12/06 11:22:12;;;;;;;27.13;12.25;;;5.00;75.60;;;;;;4895884;29;20031;-92
2020/12/06 11:24:38;;;;;;;25.58;11.50;;;4.80;75.50;;;;;;4891040;29;20044;-93
2020/12/06 11:27:03;;;;;;;28.58;12.75;;;4.90;76.00;;;;;;4900972;29;20046;-91
2020/12/06 11:29:29;;;;;;;34.72;14.00;;;4.80;76.00;;;;;;4903947;29;20118;-92
2020/12/06 11:31:56;;;;;;;36.20;15.23;;;4.90;76.00;;;;;;4899119;29;20039;-92
2020/12/06 11:34:21;;;;;;;30.38;13.75;;;4.90;76.40;;;;;;4895435;29;20040;-94
2020/12/06 11:36:48;;;;;;;32.13;13.93;;;5.00;76.70;;;;;;4912202;29;20028;-91
2020/12/06 11:39:15;;;;;;;29.92;12.82;;;5.10;76.60;;;;;;4925305;29;20032;-92
2020/12/06 11:41:41;;;;;;;27.35;13.65;;;5.10;76.20;;;;;;4903818;29;20079;-89
2020/12/06 11:44:07;;;;;;;28.92;14.05;;;5.20;76.30;;;;;;4902375;29;20127;-90
2020/12/06 11:46:32;;;;;;;25.60;12.57;;;5.30;76.30;;;;;;4906047;29;20023;-92
2020/12/06 11:49:01;;;;;;;29.95;13.85;;;5.30;76.30;;;;;;4908849;29;20036;-89
2020/12/06 11:51:30;;;;;;;27.55;13.55;;;5.20;76.10;;;;;;4898889;29;20032;-90
2020/12/06 11:53:59;;;;;;;26.30;12.55;;;5.20;75.80;;;;;;4903144;29;20044;-92
2020/12/06 11:56:28;;;;;;;29.10;13.40;;;5.20;76.00;;;;;;4906079;29;20401;-91
2020/12/06 11:58:58;;;;;;;22.42;8.32;;;5.20;75.70;;;;;;4900373;29;20059;-89
2020/12/06 12:01:28;;;;;;;27.02;11.57;;;5.10;75.60;;;;;;4905576;29;20051;-92
2020/12/06 12:03:57;;;;;;;28.67;11.27;;;5.10;75.80;;;;;;4907249;29;20149;-90
2020/12/06 12:06:23;;;;;;;30.13;12.98;;;5.10;75.50;;;;;;4914552;29;20083;-90
2020/12/06 12:08:51;;;;;;;27.35;11.70;;;5.10;76.20;;;;;;4897467;29;20024;-89
2020/12/06 12:11:17;;;;;;;28.00;11.45;;;5.10;76.00;;;;;;4909307;29;20009;-89
2020/12/06 12:13:43;;;;;;;22.20;10.27;;;5.10;75.90;;;;;;4909712;29;20044;-92
2020/12/06 12:16:09;;;;;;;25.58;12.15;;;5.10;75.90;;;;;;4907432;29;20111;-90
2020/12/06 12:18:51;;;;;;;24.33;10.68;;;5.10;75.70;;;;;;4918733;29;20055;-94
2020/12/06 12:21:16;;;;;;;45.88;21.35;;;5.20;76.30;;;;;;4914692;29;20111;-91
2020/12/06 12:23:46;;;;;;;30.25;13.55;;;5.30;76.20;;;;;;4917153;29;20048;-91
2020/12/06 12:26:14;;;;;;;26.73;11.50;;;5.20;75.70;;;;;;4908271;29;20040;-94
2020/12/06 12:28:40;;;;;;;26.45;10.45;;;5.20;76.20;;;;;;4921936;29;20469;-90
2020/12/06 12:31:52;;;;;;;30.00;12.65;;;5.30;76.40;;;;;;4900701;29;20020;-91
2020/12/06 12:34:30;;;;;;;16.88;7.03;;;5.30;76.30;;;;;;4922474;29;20040;-93
2020/12/06 12:37:09;;;;;;;25.92;11.43;;;5.30;75.80;;;;;;4916849;29;20028;-93
2020/12/06 12:39:36;;;;;;;25.25;10.43;;;5.20;75.60;;;;;;4919252;29;20043;-92
2020/12/06 12:42:01;;;;;;;23.80;10.18;;;5.30;75.90;;;;;;4912726;29;20031;-93
2020/12/06 12:44:33;;;;;;;22.80;9.30;;;5.20;76.00;;;;;;4932073;29;20024;-90
2020/12/06 12:47:00;;;;;;;22.52;9.80;;;5.20;75.90;;;;;;4893474;29;20036;-80